Time;durP1;ratioP1;P1;durP2;ratioP2;P2;SDS_P1;SDS_P2;PMS_P1;PMS_P2;Temp;Humidity;BMP_temperature;BMP_pressure;BME280_temperature;BME280_humidity;BME280_pressure;Samples;Min_cycle;Max_cycle;Signal;HPM_P1;HPM_P2
2024/04/02 00:01:50;;;;;;;;;;;;;;;;;;4443420;32;19933;-67
2024/04/02 00:04:15;;;;;;;;;;;;;;;;;;4451644;32;19988;-66
2024/04/02 00:06:40;;;;;;;;;;;;;;;;;;4453207;32;19972;-67
2024/04/02 00:09:06;;;;;;;;;;;;;;;;;;4453307;32;19936;-67
2024/04/02 00:11:31;;;;;;;;;;;;;;;;;;4450309;32;19961;-67
2024/04/02 00:13:56;;;;;;;;;;;;;;;;;;4438447;32;19932;-67
2024/04/02 00:16:21;;;;;;;;;;;;;;;;;;4436460;32;19944;-66
2024/04/02 00:18:46;;;;;;;;;;;;;;;;;;4435887;32;19989;-67
2024/04/02 00:21:12;;;;;;;;;;;;;;;;;;4439369;32;19956;-67
2024/04/02 00:23:38;;;;;;;;;;;;;;;;;;4443047;32;19936;-66
2024/04/02 00:26:03;;;;;;;;;;;;;;;;;;4439659;32;20018;-68
2024/04/02 00:28:28;;;;;;;;;;;;;;;;;;4435436;32;19955;-66
2024/04/02 00:30:53;;;;;;;;;;;;;;;;;;4436525;32;19933;-67
2024/04/02 00:33:18;;;;;;;;;;;;;;;;;;4442512;32;20017;-67
2024/04/02 00:35:43;;;;;;;;;;;;;;;;;;4453403;32;19940;-67
2024/04/02 00:38:08;;;;;;;;;;;;;;;;;;4440573;32;20008;-66
2024/04/02 00:40:34;;;;;;;;;;;;;;;;;;4452370;32;19947;-65
2024/04/02 00:42:59;;;;;;;;;;;;;;;;;;4448398;32;19983;-66
2024/04/02 00:45:24;;;;;;;;;;;;;;;;;;4450244;32;20261;-67
2024/04/02 00:47:49;;;;;;;;;;;;;;;;;;4448353;32;20042;-67
2024/04/02 00:50:14;;;;;;;;;;;;;;;;;;4438276;32;19979;-67
2024/04/02 00:52:39;;;;;;;;;;;;;;;;;;4441112;32;19966;-66
2024/04/02 00:55:04;;;;;;;;;;;;;;;;;;4451820;32;20309;-66
2024/04/02 00:57:29;;;;;;;;;;;;;;;;;;4451695;32;19941;-66
2024/04/02 00:59:54;;;;;;;;;;;;;;;;;;4451640;32;19941;-66
2024/04/02 01:02:20;;;;;;;;;;;;;;;;;;4449798;32;19945;-66
2024/04/02 01:04:47;;;;;;;;;;;;;;;;;;4448719;32;20004;-67
2024/04/02 01:07:12;;;;;;;;;;;;;;;;;;4438522;32;19967;-66
2024/04/02 01:09:37;;;;;;;;;;;;;;;;;;4442761;32;19980;-67
2024/04/02 01:12:03;;;;;;;;;;;;;;;;;;4444233;32;20247;-66
2024/04/02 01:14:28;;;;;;;;;;;;;;;;;;4435531;32;19964;-67
2024/04/02 01:16:53;;;;;;;;;;;;;;;;;;4451349;32;19958;-66
2024/04/02 01:19:18;;;;;;;;;;;;;;;;;;4451920;32;19983;-66
2024/04/02 01:21:43;;;;;;;;;;;;;;;;;;4452993;32;19932;-67
2024/04/02 01:24:08;;;;;;;;;;;;;;;;;;4451415;32;20010;-67
2024/04/02 01:26:33;;;;;;;;;;;;;;;;;;4448478;32;20356;-65
2024/04/02 01:29:00;;;;;;;;;;;;;;;;;;4445630;32;19975;-67
2024/04/02 01:31:26;;;;;;;;;;;;;;;;;;4439073;32;20014;-66
2024/04/02 01:33:51;;;;;;;;;;;;;;;;;;4436740;32;19987;-67
2024/04/02 01:36:16;;;;;;;;;;;;;;;;;;4448851;32;19964;-67
2024/04/02 01:38:41;;;;;;;;;;;;;;;;;;4451140;32;19936;-66
2024/04/02 01:41:06;;;;;;;;;;;;;;;;;;4442466;32;19933;-67
2024/04/02 01:43:31;;;;;;;;;;;;;;;;;;4444598;32;19936;-67
2024/04/02 01:45:56;;;;;;;;;;;;;;;;;;4452601;32;19933;-66
2024/04/02 01:48:21;;;;;;;;;;;;;;;;;;4451493;32;19992;-67
2024/04/02 01:50:46;;;;;;;;;;;;;;;;;;4449818;32;20025;-67
2024/04/02 01:53:12;;;;;;;;;;;;;;;;;;4444345;32;19941;-66
2024/04/02 01:55:37;;;;;;;;;;;;;;;;;;4450415;32;19969;-66
2024/04/02 01:58:02;;;;;;;;;;;;;;;;;;4440300;32;19974;-66
2024/04/02 02:00:27;;;;;;;;;;;;;;;;;;4442696;32;19952;-67
2024/04/02 02:02:52;;;;;;;;;;;;;;;;;;4444976;32;19974;-66
2024/04/02 02:05:17;;;;;;;;;;;;;;;;;;4451194;32;19965;-66
2024/04/02 02:07:42;;;;;;;;;;;;;;;;;;4452931;32;19960;-65
2024/04/02 02:10:07;;;;;;;;;;;;;;;;;;4451310;32;19933;-67
2024/04/02 02:12:32;;;;;;;;;;;;;;;;;;4448746;32;19937;-65
2024/04/02 02:14:57;;;;;;;;;;;;;;;;;;4434293;32;19966;-66
2024/04/02 02:17:23;;;;;;;;;;;;;;;;;;4436079;32;19960;-66
2024/04/02 02:19:48;;;;;;;;;;;;;;;;;;4435608;32;19933;-66
2024/04/02 02:22:13;;;;;;;;;;;;;;;;;;4440346;32;19988;-66
2024/04/02 02:24:38;;;;;;;;;;;;;;;;;;4435870;32;20421;-66
2024/04/02 02:27:03;;;;;;;;;;;;;;;;;;4434696;32;19937;-68
2024/04/02 02:29:28;;;;;;;;;;;;;;;;;;4447049;32;19955;-66
2024/04/02 02:31:53;;;;;;;;;;;;;;;;;;4450780;32;19933;-66
2024/04/02 02:34:19;;;;;;;;;;;;;;;;;;4446649;32;20353;-67
2024/04/02 02:36:44;;;;;;;;;;;;;;;;;;4447852;32;19933;-67
2024/04/02 02:39:09;;;;;;;;;;;;;;;;;;4435507;32;20365;-67
2024/04/02 02:41:34;;;;;;;;;;;;;;;;;;4433866;32;19936;-67
2024/04/02 02:44:00;;;;;;;;;;;;;;;;;;4444826;32;20740;-66
2024/04/02 02:46:25;;;;;;;;;;;;;;;;;;4451129;32;19958;-67
2024/04/02 02:48:50;;;;;;;;;;;;;;;;;;4442921;32;19933;-66
2024/04/02 02:51:15;;;;;;;;;;;;;;;;;;4436025;32;19933;-67
2024/04/02 02:53:40;;;;;;;;;;;;;;;;;;4443380;32;19936;-66
2024/04/02 02:56:05;;;;;;;;;;;;;;;;;;4451799;32;19942;-67
2024/04/02 02:58:30;;;;;;;;;;;;;;;;;;4449324;32;19955;-67
2024/04/02 03:00:55;;;;;;;;;;;;;;;;;;4450315;32;19937;-66
2024/04/02 03:03:21;;;;;;;;;;;;;;;;;;4443848;32;20265;-66
2024/04/02 03:05:46;;;;;;;;;;;;;;;;;;4436878;32;20006;-65
2024/04/02 03:08:11;;;;;;;;;;;;;;;;;;4449920;32;19937;-67
2024/04/02 03:10:36;;;;;;;;;;;;;;;;;;4449829;32;19969;-66
2024/04/02 03:13:01;;;;;;;;;;;;;;;;;;4449939;32;19981;-66
2024/04/02 03:15:26;;;;;;;;;;;;;;;;;;4448345;32;19944;-66
2024/04/02 03:17:51;;;;;;;;;;;;;;;;;;4448415;32;20210;-67
2024/04/02 03:20:17;;;;;;;;;;;;;;;;;;4434623;32;19937;-65
2024/04/02 03:22:42;;;;;;;;;;;;;;;;;;4442087;32;20023;-67
2024/04/02 03:25:07;;;;;;;;;;;;;;;;;;4449015;32;19971;-66
2024/04/02 03:27:32;;;;;;;;;;;;;;;;;;4452325;32;19973;-67
2024/04/02 03:29:57;;;;;;;;;;;;;;;;;;4452160;32;19977;-66
2024/04/02 03:32:22;;;;;;;;;;;;;;;;;;4437640;32;20017;-66
2024/04/02 03:34:47;;;;;;;;;;;;;;;;;;4449667;32;19928;-66
2024/04/02 03:37:13;;;;;;;;;;;;;;;;;;4454177;32;19966;-65
2024/04/02 03:39:38;;;;;;;;;;;;;;;;;;4452970;32;19943;-66
2024/04/02 03:42:03;;;;;;;;;;;;;;;;;;4452972;32;19947;-66
2024/04/02 03:44:28;;;;;;;;;;;;;;;;;;4450202;32;20331;-67
2024/04/02 03:46:53;;;;;;;;;;;;;;;;;;4453639;32;19958;-66
2024/04/02 03:49:18;;;;;;;;;;;;;;;;;;4452739;32;19978;-65
2024/04/02 03:51:43;;;;;;;;;;;;;;;;;;4454528;32;19970;-66
2024/04/02 03:54:08;;;;;;;;;;;;;;;;;;4445303;32;19976;-66
2024/04/02 03:56:34;;;;;;;;;;;;;;;;;;4439662;32;19948;-66
2024/04/02 03:58:59;;;;;;;;;;;;;;;;;;4453588;32;19964;-66
2024/04/02 04:01:24;;;;;;;;;;;;;;;;;;4449992;32;19944;-66
2024/04/02 04:03:49;;;;;;;;;;;;;;;;;;4441501;32;19937;-65
2024/04/02 04:06:14;;;;;;;;;;;;;;;;;;4435751;32;20251;-66
2024/04/02 04:08:40;;;;;;;;;;;;;;;;;;4438945;32;19936;-66
2024/04/02 04:11:05;;;;;;;;;;;;;;;;;;4438149;32;19994;-66
2024/04/02 04:13:30;;;;;;;;;;;;;;;;;;4441985;32;19936;-64
2024/04/02 04:15:55;;;;;;;;;;;;;;;;;;4436745;32;19937;-65
2024/04/02 04:18:20;;;;;;;;;;;;;;;;;;4437071;32;20278;-65
2024/04/02 04:20:45;;;;;;;;;;;;;;;;;;4437194;32;20264;-65
2024/04/02 04:23:10;;;;;;;;;;;;;;;;;;4437618;32;20305;-66
2024/04/02 04:25:35;;;;;;;;;;;;;;;;;;4452887;32;20003;-65
2024/04/02 04:28:01;;;;;;;;;;;;;;;;;;4451560;32;19944;-66
2024/04/02 04:30:26;;;;;;;;;;;;;;;;;;4452709;32;19932;-66
2024/04/02 04:32:51;;;;;;;;;;;;;;;;;;4453550;32;19997;-66
2024/04/02 04:35:16;;;;;;;;;;;;;;;;;;4436905;32;20279;-66
2024/04/02 04:37:41;;;;;;;;;;;;;;;;;;4436006;32;20262;-65
2024/04/02 04:40:06;;;;;;;;;;;;;;;;;;4438451;32;19947;-66
2024/04/02 04:42:32;;;;;;;;;;;;;;;;;;4436699;32;19976;-65
2024/04/02 04:44:58;;;;;;;;;;;;;;;;;;4438050;32;20312;-66
2024/04/02 04:47:23;;;;;;;;;;;;;;;;;;4436410;32;19933;-66
2024/04/02 04:49:48;;;;;;;;;;;;;;;;;;4447199;32;19976;-66
2024/04/02 04:52:13;;;;;;;;;;;;;;;;;;4452050;32;20322;-66
2024/04/02 04:54:38;;;;;;;;;;;;;;;;;;4442402;32;19948;-67
2024/04/02 04:57:03;;;;;;;;;;;;;;;;;;4437958;32;19932;-66
2024/04/02 04:59:28;;;;;;;;;;;;;;;;;;4445701;32;19956;-66
2024/04/02 05:01:53;;;;;;;;;;;;;;;;;;4451099;32;19933;-66
2024/04/02 05:04:18;;;;;;;;;;;;;;;;;;4445470;32;20023;-65
2024/04/02 05:06:44;;;;;;;;;;;;;;;;;;4434466;32;20286;-67
2024/04/02 05:09:11;;;;;;;;;;;;;;;;;;4446370;32;19974;-66
2024/04/02 05:11:36;;;;;;;;;;;;;;;;;;4451239;32;19965;-66
2024/04/02 05:14:01;;;;;;;;;;;;;;;;;;4448040;32;19999;-65
2024/04/02 05:16:27;;;;;;;;;;;;;;;;;;4440106;32;19944;-66
2024/04/02 05:18:52;;;;;;;;;;;;;;;;;;4436172;32;19937;-66
2024/04/02 05:21:17;;;;;;;;;;;;;;;;;;4438578;32;19988;-66
2024/04/02 05:23:42;;;;;;;;;;;;;;;;;;4449819;32;20219;-66
2024/04/02 05:26:08;;;;;;;;;;;;;;;;;;4451011;32;19975;-65
2024/04/02 05:28:33;;;;;;;;;;;;;;;;;;4451783;32;19941;-66
2024/04/02 05:30:58;;;;;;;;;;;;;;;;;;4437430;32;19968;-66
2024/04/02 05:33:23;;;;;;;;;;;;;;;;;;4440551;32;20004;-66
2024/04/02 05:35:49;;;;;;;;;;;;;;;;;;4446285;32;19933;-66
2024/04/02 05:38:14;;;;;;;;;;;;;;;;;;4436081;32;19933;-65
2024/04/02 05:40:39;;;;;;;;;;;;;;;;;;4440909;32;19984;-66
2024/04/02 05:43:04;;;;;;;;;;;;;;;;;;4450013;32;19936;-66
2024/04/02 05:45:29;;;;;;;;;;;;;;;;;;4437267;32;19933;-65
2024/04/02 05:47:54;;;;;;;;;;;;;;;;;;4437095;32;19989;-66
2024/04/02 05:50:19;;;;;;;;;;;;;;;;;;4441349;32;20215;-66
2024/04/02 05:52:44;;;;;;;;;;;;;;;;;;4451334;32;19936;-66
2024/04/02 05:55:10;;;;;;;;;;;;;;;;;;4451463;32;20142;-66
2024/04/02 05:57:35;;;;;;;;;;;;;;;;;;4452160;32;19940;-65
2024/04/02 06:00:00;;;;;;;;;;;;;;;;;;4440662;32;19985;-65
2024/04/02 06:02:25;;;;;;;;;;;;;;;;;;4439114;32;19953;-66
2024/04/02 06:04:50;;;;;;;;;;;;;;;;;;4450405;32;19963;-67
2024/04/02 06:07:15;;;;;;;;;;;;;;;;;;4450544;32;20356;-67
2024/04/02 06:09:41;;;;;;;;;;;;;;;;;;4444273;32;19960;-66
2024/04/02 06:12:07;;;;;;;;;;;;;;;;;;4432773;32;19949;-67
2024/04/02 06:14:32;;;;;;;;;;;;;;;;;;4437534;32;20018;-67
2024/04/02 06:16:57;;;;;;;;;;;;;;;;;;4437228;32;19937;-66
2024/04/02 06:19:22;;;;;;;;;;;;;;;;;;4435049;32;19983;-67
2024/04/02 06:21:47;;;;;;;;;;;;;;;;;;4436952;32;20306;-67
2024/04/02 06:24:12;;;;;;;;;;;;;;;;;;4451001;32;20007;-66
2024/04/02 06:26:37;;;;;;;;;;;;;;;;;;4451083;32;19953;-66
2024/04/02 06:29:02;;;;;;;;;;;;;;;;;;4439153;32;19933;-68
2024/04/02 06:31:28;;;;;;;;;;;;;;;;;;4434048;32;19979;-67
2024/04/02 06:33:53;;;;;;;;;;;;;;;;;;4438117;32;19945;-66
2024/04/02 06:36:19;;;;;;;;;;;;;;;;;;4446964;32;19975;-66
2024/04/02 06:38:44;;;;;;;;;;;;;;;;;;4444590;32;19945;-67
2024/04/02 06:41:09;;;;;;;;;;;;;;;;;;4450805;32;20035;-66
2024/04/02 06:43:34;;;;;;;;;;;;;;;;;;4443032;32;19952;-67
2024/04/02 06:45:59;;;;;;;;;;;;;;;;;;4436159;32;19947;-68
2024/04/02 06:48:24;;;;;;;;;;;;;;;;;;4435099;32;19972;-66
2024/04/02 06:50:49;;;;;;;;;;;;;;;;;;4446397;32;20394;-67
2024/04/02 06:53:14;;;;;;;;;;;;;;;;;;4449413;32;19962;-67
2024/04/02 06:55:40;;;;;;;;;;;;;;;;;;4450742;32;19956;-67
2024/04/02 06:58:05;;;;;;;;;;;;;;;;;;4435905;32;19929;-65
2024/04/02 07:00:30;;;;;;;;;;;;;;;;;;4450045;32;19971;-66
2024/04/02 07:02:55;;;;;;;;;;;;;;;;;;4443583;32;19959;-67
2024/04/02 07:05:20;;;;;;;;;;;;;;;;;;4450795;32;19937;-66
2024/04/02 07:07:45;;;;;;;;;;;;;;;;;;4438693;32;19937;-67
2024/04/02 07:10:10;;;;;;;;;;;;;;;;;;4443704;32;19955;-66
2024/04/02 07:12:35;;;;;;;;;;;;;;;;;;4445186;32;19960;-66
2024/04/02 07:15:00;;;;;;;;;;;;;;;;;;4450496;32;19944;-65
2024/04/02 07:17:25;;;;;;;;;;;;;;;;;;4448272;32;19944;-67
2024/04/02 07:19:51;;;;;;;;;;;;;;;;;;4448464;32;19959;-66
2024/04/02 07:22:16;;;;;;;;;;;;;;;;;;4451960;32;19936;-66
2024/04/02 07:24:41;;;;;;;;;;;;;;;;;;4447623;32;20356;-67
2024/04/02 07:27:06;;;;;;;;;;;;;;;;;;4439432;32;19943;-66
2024/04/02 07:29:31;;;;;;;;;;;;;;;;;;4438538;32;19960;-65
2024/04/02 07:31:56;;;;;;;;;;;;;;;;;;4437218;32;19936;-66
2024/04/02 07:34:21;;;;;;;;;;;;;;;;;;4452736;32;20374;-65
2024/04/02 07:36:46;;;;;;;;;;;;;;;;;;4450760;32;19948;-66
2024/04/02 07:39:11;;;;;;;;;;;;;;;;;;4452275;32;20287;-66
2024/04/02 07:41:37;;;;;;;;;;;;;;;;;;4454098;32;19944;-67
2024/04/02 07:44:02;;;;;;;;;;;;;;;;;;4451779;32;20134;-66
2024/04/02 07:46:27;;;;;;;;;;;;;;;;;;4451154;32;19948;-67
2024/04/02 07:48:52;;;;;;;;;;;;;;;;;;4448780;32;19980;-67
2024/04/02 07:51:17;;;;;;;;;;;;;;;;;;4435146;32;19944;-66
2024/04/02 07:53:42;;;;;;;;;;;;;;;;;;4442769;32;20007;-66
2024/04/02 07:56:07;;;;;;;;;;;;;;;;;;4435018;32;20291;-66
2024/04/02 07:58:32;;;;;;;;;;;;;;;;;;4436592;32;20370;-66
2024/04/02 08:00:57;;;;;;;;;;;;;;;;;;4436027;32;19933;-67
2024/04/02 08:03:22;;;;;;;;;;;;;;;;;;4449714;32;19996;-67
2024/04/02 08:05:47;;;;;;;;;;;;;;;;;;4437828;32;19959;-67
2024/04/02 08:08:13;;;;;;;;;;;;;;;;;;4437071;32;19946;-66
2024/04/02 08:10:39;;;;;;;;;;;;;;;;;;4437685;32;19979;-66
2024/04/02 08:13:04;;;;;;;;;;;;;;;;;;4438822;32;19937;-67
2024/04/02 08:15:32;;;;;;;;;;;;;;;;;;4444685;32;19986;-67
2024/04/02 08:17:57;;;;;;;;;;;;;;;;;;4452468;32;19936;-66
2024/04/02 08:20:22;;;;;;;;;;;;;;;;;;4453695;32;19999;-67
2024/04/02 08:22:47;;;;;;;;;;;;;;;;;;4451597;32;19951;-66
2024/04/02 08:25:12;;;;;;;;;;;;;;;;;;4440127;32;19941;-67
2024/04/02 08:27:37;;;;;;;;;;;;;;;;;;4435919;32;19936;-68
2024/04/02 08:30:05;;;;;;;;;;;;;;;;;;4443977;32;19940;-67
2024/04/02 08:32:30;;;;;;;;;;;;;;;;;;4451885;32;19937;-66
2024/04/02 08:34:55;;;;;;;;;;;;;;;;;;4443889;32;19952;-67
2024/04/02 08:37:20;;;;;;;;;;;;;;;;;;4444232;32;19949;-66
2024/04/02 08:39:45;;;;;;;;;;;;;;;;;;4440370;32;19948;-68
2024/04/02 08:42:10;;;;;;;;;;;;;;;;;;4450670;32;19932;-70
2024/04/02 08:44:36;;;;;;;;;;;;;;;;;;4447985;32;19941;-68
2024/04/02 08:47:01;;;;;;;;;;;;;;;;;;4434799;32;20016;-66
2024/04/02 08:49:26;;;;;;;;;;;;;;;;;;4436440;32;20029;-67
2024/04/02 08:51:51;;;;;;;;;;;;;;;;;;4437359;32;19952;-68
2024/04/02 08:54:17;;;;;;;;;;;;;;;;;;4439557;32;19933;-67
2024/04/02 08:56:42;;;;;;;;;;;;;;;;;;4451633;32;19936;-66
2024/04/02 08:59:07;;;;;;;;;;;;;;;;;;4449979;32;20007;-67
2024/04/02 09:01:32;;;;;;;;;;;;;;;;;;4447639;32;19943;-68
2024/04/02 09:03:57;;;;;;;;;;;;;;;;;;4435383;32;19967;-67
2024/04/02 09:06:22;;;;;;;;;;;;;;;;;;4448627;32;19937;-66
2024/04/02 09:08:47;;;;;;;;;;;;;;;;;;4442046;32;19936;-67
2024/04/02 09:11:12;;;;;;;;;;;;;;;;;;4436342;32;19933;-67
2024/04/02 09:13:38;;;;;;;;;;;;;;;;;;4437603;32;19953;-66
2024/04/02 09:16:03;;;;;;;;;;;;;;;;;;4447962;32;19976;-67
2024/04/02 09:18:31;;;;;;;;;;;;;;;;;;4452868;32;19943;-66
2024/04/02 09:20:57;;;;;;;;;;;;;;;;;;4451563;32;20319;-67
2024/04/02 09:23:22;;;;;;;;;;;;;;;;;;4449540;32;20260;-66
2024/04/02 09:25:47;;;;;;;;;;;;;;;;;;4448634;32;20396;-67
2024/04/02 09:28:12;;;;;;;;;;;;;;;;;;4450233;32;19987;-67
2024/04/02 09:30:38;;;;;;;;;;;;;;;;;;4439435;32;19984;-66
2024/04/02 09:33:04;;;;;;;;;;;;;;;;;;4441467;32;20390;-69
2024/04/02 09:35:29;;;;;;;;;;;;;;;;;;4436644;32;19984;-66
2024/04/02 09:37:54;;;;;;;;;;;;;;;;;;4436649;32;19941;-66
2024/04/02 09:40:19;;;;;;;;;;;;;;;;;;4444789;32;19972;-67
2024/04/02 09:42:47;;;;;;;;;;;;;;;;;;4450118;32;19943;-67
2024/04/02 09:45:12;;;;;;;;;;;;;;;;;;4445138;32;19967;-68
2024/04/02 09:47:37;;;;;;;;;;;;;;;;;;4440687;32;19941;-68
2024/04/02 09:50:03;;;;;;;;;;;;;;;;;;4444096;32;19940;-68
2024/04/02 09:52:28;;;;;;;;;;;;;;;;;;4445850;32;19982;-68
2024/04/02 09:54:53;;;;;;;;;;;;;;;;;;4442541;32;19940;-68
2024/04/02 09:57:18;;;;;;;;;;;;;;;;;;4439968;32;19952;-68
2024/04/02 09:59:43;;;;;;;;;;;;;;;;;;4441639;32;19940;-69
2024/04/02 10:02:08;;;;;;;;;;;;;;;;;;4450483;32;19998;-68
2024/04/02 10:04:34;;;;;;;;;;;;;;;;;;4449372;32;20271;-70
2024/04/02 10:07:00;;;;;;;;;;;;;;;;;;4451142;32;20020;-68
2024/04/02 10:09:26;;;;;;;;;;;;;;;;;;4438234;32;19932;-69
2024/04/02 10:11:51;;;;;;;;;;;;;;;;;;4437928;32;19933;-69
2024/04/02 10:14:16;;;;;;;;;;;;;;;;;;4450172;32;19984;-70
2024/04/02 10:16:41;;;;;;;;;;;;;;;;;;4444565;32;19955;-68
2024/04/02 10:19:06;;;;;;;;;;;;;;;;;;4443355;32;19989;-69
2024/04/02 10:21:32;;;;;;;;;;;;;;;;;;4438611;32;19944;-68
2024/04/02 10:23:57;;;;;;;;;;;;;;;;;;4451219;32;19988;-67
2024/04/02 10:26:22;;;;;;;;;;;;;;;;;;4449794;32;19940;-68
2024/04/02 10:28:47;;;;;;;;;;;;;;;;;;4449124;32;19960;-68
2024/04/02 10:31:12;;;;;;;;;;;;;;;;;;4434434;32;19932;-68
2024/04/02 10:33:37;;;;;;;;;;;;;;;;;;4446854;32;20261;-68
2024/04/02 10:36:03;;;;;;;;;;;;;;;;;;4444267;32;20284;-66
2024/04/02 10:38:28;;;;;;;;;;;;;;;;;;4449941;32;19940;-67
2024/04/02 10:40:53;;;;;;;;;;;;;;;;;;4450888;32;19940;-68
2024/04/02 10:43:18;;;;;;;;;;;;;;;;;;4445929;32;20381;-67
2024/04/02 10:45:44;;;;;;;;;;;;;;;;;;4449156;32;19988;-67
2024/04/02 10:48:09;;;;;;;;;;;;;;;;;;4449179;32;19937;-67
2024/04/02 10:50:34;;;;;;;;;;;;;;;;;;4450256;32;19970;-68
2024/04/02 10:52:59;;;;;;;;;;;;;;;;;;4445253;32;19985;-68
2024/04/02 10:55:24;;;;;;;;;;;;;;;;;;4445437;32;19933;-68
2024/04/02 10:57:49;;;;;;;;;;;;;;;;;;4435750;32;19986;-68
2024/04/02 11:00:15;;;;;;;;;;;;;;;;;;4446846;32;19991;-67
2024/04/02 11:02:41;;;;;;;;;;;;;;;;;;4447944;32;19941;-67
2024/04/02 11:05:06;;;;;;;;;;;;;;;;;;4451287;32;19940;-67
2024/04/02 11:07:32;;;;;;;;;;;;;;;;;;4445986;32;20339;-67
2024/04/02 11:09:57;;;;;;;;;;;;;;;;;;4438666;32;19948;-68
2024/04/02 11:12:22;;;;;;;;;;;;;;;;;;4438740;32;19945;-66
2024/04/02 11:14:47;;;;;;;;;;;;;;;;;;4447866;32;19973;-67
2024/04/02 11:17:12;;;;;;;;;;;;;;;;;;4446514;32;19933;-68
2024/04/02 11:19:38;;;;;;;;;;;;;;;;;;4444594;32;19956;-68
2024/04/02 11:25:05;;;;;;;;;;;;;;;;;;4447359;32;20380;-68
2024/04/02 11:27:31;;;;;;;;;;;;;;;;;;4438439;32;19953;-67
2024/04/02 11:29:56;;;;;;;;;;;;;;;;;;4442199;32;20348;-67
2024/04/02 11:32:21;;;;;;;;;;;;;;;;;;4434039;32;19964;-68
2024/04/02 11:34:46;;;;;;;;;;;;;;;;;;4434621;32;19977;-68
2024/04/02 11:37:11;;;;;;;;;;;;;;;;;;4433333;32;19941;-67
2024/04/02 11:39:36;;;;;;;;;;;;;;;;;;4443448;32;19945;-68
2024/04/02 11:42:02;;;;;;;;;;;;;;;;;;4449850;32;20105;-68
2024/04/02 11:44:27;;;;;;;;;;;;;;;;;;4450401;32;19972;-67
2024/04/02 11:46:52;;;;;;;;;;;;;;;;;;4450564;32;19940;-68
2024/04/02 11:49:17;;;;;;;;;;;;;;;;;;4445121;32;20493;-68
2024/04/02 11:51:42;;;;;;;;;;;;;;;;;;4448517;32;20302;-67
2024/04/02 11:54:07;;;;;;;;;;;;;;;;;;4443830;32;19996;-67
2024/04/02 12:02:00;;;;;;;;;;;;;;;;;;4448960;32;20339;-69
2024/04/02 12:04:25;;;;;;;;;;;;;;;;;;4446455;32;19956;-67
2024/04/02 12:06:51;;;;;;;;;;;;;;;;;;4446169;32;19940;-67
2024/04/02 12:09:17;;;;;;;;;;;;;;;;;;4451050;32;19947;-67
2024/04/02 12:11:42;;;;;;;;;;;;;;;;;;4442300;32;19940;-68
2024/04/02 12:14:07;;;;;;;;;;;;;;;;;;4448422;32;19940;-67
2024/04/02 12:16:32;;;;;;;;;;;;;;;;;;4449894;32;20001;-68
2024/04/02 12:18:58;;;;;;;;;;;;;;;;;;4450300;32;19945;-68
2024/04/02 12:21:24;;;;;;;;;;;;;;;;;;4440490;32;20008;-69
2024/04/02 12:23:49;;;;;;;;;;;;;;;;;;4444216;32;20039;-70
2024/04/02 12:26:14;;;;;;;;;;;;;;;;;;4450430;32;19980;-69
2024/04/02 12:28:40;;;;;;;;;;;;;;;;;;4450429;32;19998;-70
2024/04/02 12:31:05;;;;;;;;;;;;;;;;;;4446645;32;19984;-71
2024/04/02 12:33:30;;;;;;;;;;;;;;;;;;4449836;32;19944;-70
2024/04/02 12:35:55;;;;;;;;;;;;;;;;;;4441898;32;19945;-70
2024/04/02 12:38:20;;;;;;;;;;;;;;;;;;4451758;32;20265;-74
2024/04/02 12:40:45;;;;;;;;;;;;;;;;;;4447527;32;19978;-72
2024/04/02 12:43:10;;;;;;;;;;;;;;;;;;4434999;32;20285;-73
2024/04/02 12:45:35;;;;;;;;;;;;;;;;;;4439205;32;19936;-73
2024/04/02 12:48:01;;;;;;;;;;;;;;;;;;4450644;32;19944;-73
2024/04/02 12:50:26;;;;;;;;;;;;;;;;;;4450654;32;19940;-74
2024/04/02 12:52:51;;;;;;;;;;;;;;;;;;4452779;32;20291;-74
2024/04/02 12:55:16;;;;;;;;;;;;;;;;;;4443871;32;19948;-77
2024/04/02 12:57:41;;;;;;;;;;;;;;;;;;4436706;32;20326;-75
2024/04/02 13:00:06;;;;;;;;;;;;;;;;;;4452207;32;20028;-75
2024/04/02 13:02:31;;;;;;;;;;;;;;;;;;4438909;32;19936;-77
2024/04/02 13:04:57;;;;;;;;;;;;;;;;;;4450984;32;19985;-75
2024/04/02 13:07:22;;;;;;;;;;;;;;;;;;4452034;32;19940;-77
2024/04/02 13:09:48;;;;;;;;;;;;;;;;;;4449929;32;20325;-75
2024/04/02 13:12:13;;;;;;;;;;;;;;;;;;4448782;32;19941;-75
2024/04/02 13:14:38;;;;;;;;;;;;;;;;;;4452330;32;20013;-76
2024/04/02 13:17:03;;;;;;;;;;;;;;;;;;4437191;32;19937;-74
2024/04/02 13:19:28;;;;;;;;;;;;;;;;;;4452019;32;20280;-76
2024/04/02 13:21:53;;;;;;;;;;;;;;;;;;4441035;32;19947;-74
2024/04/02 13:24:19;;;;;;;;;;;;;;;;;;4436241;32;19994;-75
2024/04/02 13:26:44;;;;;;;;;;;;;;;;;;4445086;32;19955;-75
2024/04/02 13:29:09;;;;;;;;;;;;;;;;;;4451792;32;19951;-75
2024/04/02 13:31:34;;;;;;;;;;;;;;;;;;4445271;32;19988;-74
2024/04/02 13:34:01;;;;;;;;;;;;;;;;;;4437102;32;19982;-74
2024/04/02 13:36:26;;;;;;;;;;;;;;;;;;4436473;32;20347;-74
2024/04/02 13:38:51;;;;;;;;;;;;;;;;;;4441086;32;20242;-74
2024/04/02 13:41:18;;;;;;;;;;;;;;;;;;4450136;32;19936;-74
2024/04/02 13:43:43;;;;;;;;;;;;;;;;;;4451126;32;19955;-73
2024/04/02 13:46:08;;;;;;;;;;;;;;;;;;4452264;32;19936;-74
2024/04/02 13:48:33;;;;;;;;;;;;;;;;;;4456511;32;19936;-74
2024/04/02 13:50:58;;;;;;;;;;;;;;;;;;4455008;32;19932;-74
2024/04/02 13:53:24;;;;;;;;;;;;;;;;;;4434563;32;19952;-73
2024/04/02 13:55:49;;;;;;;;;;;;;;;;;;4436150;32;19947;-73
2024/04/02 13:58:14;;;;;;;;;;;;;;;;;;4436313;32;19936;-76
2024/04/02 14:00:39;;;;;;;;;;;;;;;;;;4437281;32;19944;-73
2024/04/02 14:03:04;;;;;;;;;;;;;;;;;;4436177;32;19937;-74
2024/04/02 14:05:29;;;;;;;;;;;;;;;;;;4435909;32;20029;-75
2024/04/02 14:07:54;;;;;;;;;;;;;;;;;;4439123;32;20317;-73
2024/04/02 14:10:20;;;;;;;;;;;;;;;;;;4436999;32;19936;-74
2024/04/02 14:12:45;;;;;;;;;;;;;;;;;;4447334;32;19949;-73
2024/04/02 14:15:10;;;;;;;;;;;;;;;;;;4439693;32;20334;-75
2024/04/02 14:17:35;;;;;;;;;;;;;;;;;;4442122;32;19952;-75
2024/04/02 14:20:05;;;;;;;;;;;;;;;;;;4435688;32;19933;-75
2024/04/02 14:22:30;;;;;;;;;;;;;;;;;;4437957;32;19968;-73
2024/04/02 14:24:57;;;;;;;;;;;;;;;;;;4436092;32;19944;-75
2024/04/02 14:27:22;;;;;;;;;;;;;;;;;;4444514;32;19939;-75
2024/04/02 14:29:47;;;;;;;;;;;;;;;;;;4449194;32;19940;-74
2024/04/02 14:32:12;;;;;;;;;;;;;;;;;;4439706;32;19970;-73
2024/04/02 14:34:37;;;;;;;;;;;;;;;;;;4434329;32;19969;-75
2024/04/02 14:37:02;;;;;;;;;;;;;;;;;;4444316;32;19932;-75
2024/04/02 14:39:27;;;;;;;;;;;;;;;;;;4449643;32;19978;-74
2024/04/02 14:41:52;;;;;;;;;;;;;;;;;;4443075;32;19952;-75
2024/04/02 14:44:18;;;;;;;;;;;;;;;;;;4450657;32;19933;-76
2024/04/02 14:46:43;;;;;;;;;;;;;;;;;;4443418;32;19951;-75
2024/04/02 14:49:08;;;;;;;;;;;;;;;;;;4435903;32;20350;-74
2024/04/02 14:51:33;;;;;;;;;;;;;;;;;;4437732;32;19941;-74
2024/04/02 14:54:01;;;;;;;;;;;;;;;;;;4439559;32;20349;-74
2024/04/02 14:56:26;;;;;;;;;;;;;;;;;;4438151;32;19941;-74
2024/04/02 14:58:51;;;;;;;;;;;;;;;;;;4438830;32;19951;-76
2024/04/02 15:01:18;;;;;;;;;;;;;;;;;;4439087;32;19936;-74
2024/04/02 15:03:43;;;;;;;;;;;;;;;;;;4443075;32;19961;-73
2024/04/02 15:06:08;;;;;;;;;;;;;;;;;;4451062;32;19940;-76
2024/04/02 15:08:35;;;;;;;;;;;;;;;;;;4435270;32;19949;-74
2024/04/02 15:11:00;;;;;;;;;;;;;;;;;;4440040;32;20317;-75
2024/04/02 15:13:25;;;;;;;;;;;;;;;;;;4436195;32;20308;-75
2024/04/02 15:15:50;;;;;;;;;;;;;;;;;;4435679;32;20328;-73
2024/04/02 15:18:15;;;;;;;;;;;;;;;;;;4435382;32;20330;-75
2024/04/02 15:20:40;;;;;;;;;;;;;;;;;;4435557;32;20342;-73
2024/04/02 15:23:06;;;;;;;;;;;;;;;;;;4452035;32;20000;-73
2024/04/02 15:25:31;;;;;;;;;;;;;;;;;;4454647;32;19937;-73
2024/04/02 15:27:56;;;;;;;;;;;;;;;;;;4440612;32;20321;-75
2024/04/02 15:30:21;;;;;;;;;;;;;;;;;;4437466;32;20321;-72
2024/04/02 15:32:46;;;;;;;;;;;;;;;;;;4438236;32;19932;-75
2024/04/02 15:35:12;;;;;;;;;;;;;;;;;;4453430;32;19933;-72
2024/04/02 15:37:37;;;;;;;;;;;;;;;;;;4442955;32;19937;-73
2024/04/02 15:40:02;;;;;;;;;;;;;;;;;;4436527;32;19941;-74
2024/04/02 15:42:27;;;;;;;;;;;;;;;;;;4446494;32;19936;-73
2024/04/02 15:44:52;;;;;;;;;;;;;;;;;;4454411;32;19932;-74
2024/04/02 15:47:17;;;;;;;;;;;;;;;;;;4448240;32;20262;-73
2024/04/02 15:49:42;;;;;;;;;;;;;;;;;;4447568;32;19967;-74
2024/04/02 15:52:07;;;;;;;;;;;;;;;;;;4454690;32;20294;-74
2024/04/02 15:54:32;;;;;;;;;;;;;;;;;;4452853;32;19993;-74
2024/04/02 15:56:59;;;;;;;;;;;;;;;;;;4450618;32;19956;-74
2024/04/02 15:59:24;;;;;;;;;;;;;;;;;;4451890;32;19932;-74
2024/04/02 16:01:49;;;;;;;;;;;;;;;;;;4452155;32;20012;-74
2024/04/02 16:04:14;;;;;;;;;;;;;;;;;;4440087;32;19979;-74
2024/04/02 16:06:39;;;;;;;;;;;;;;;;;;4438588;32;19937;-73
2024/04/02 16:09:05;;;;;;;;;;;;;;;;;;4446829;32;19932;-75
2024/04/02 16:11:30;;;;;;;;;;;;;;;;;;4452707;32;19976;-74
2024/04/02 16:13:55;;;;;;;;;;;;;;;;;;4447702;32;20360;-75
2024/04/02 16:16:20;;;;;;;;;;;;;;;;;;4438813;32;19970;-75
2024/04/02 16:18:45;;;;;;;;;;;;;;;;;;4452146;32;19979;-74
2024/04/02 16:21:10;;;;;;;;;;;;;;;;;;4439288;32;20375;-74
2024/04/02 16:23:36;;;;;;;;;;;;;;;;;;4447894;32;19956;-73
2024/04/02 16:26:04;;;;;;;;;;;;;;;;;;4453970;32;19933;-74
2024/04/02 16:28:29;;;;;;;;;;;;;;;;;;4452619;32;20463;-74
2024/04/02 16:30:54;;;;;;;;;;;;;;;;;;4452473;32;19933;-72
2024/04/02 16:33:19;;;;;;;;;;;;;;;;;;4451971;32;20357;-72
2024/04/02 16:35:44;;;;;;;;;;;;;;;;;;4453843;32;19937;-73
2024/04/02 16:38:12;;;;;;;;;;;;;;;;;;4451361;32;19972;-72
2024/04/02 16:40:37;;;;;;;;;;;;;;;;;;4450449;32;20043;-71